sensor_id;sensor_type;location;lat;lon;timestamp;P1;durP1;ratioP1;P2;durP2;ratioP2
42098;SDS011;27758;55.900;8.516;2022-09-09T00:04:41;6.70;;;2.00;;
42098;SDS011;27758;55.900;8.516;2022-09-09T00:07:15;2.53;;;1.38;;
42098;SDS011;27758;55.900;8.516;2022-09-09T00:12:38;4.70;;;1.65;;
42098;SDS011;27758;55.900;8.516;2022-09-09T00:15:12;2.35;;;1.35;;
42098;SDS011;27758;55.900;8.516;2022-09-09T00:17:49;4.20;;;1.40;;
42098;SDS011;27758;55.900;8.516;2022-09-09T00:20:32;1.98;;;1.15;;
42098;SDS011;27758;55.900;8.516;2022-09-09T00:25:37;6.38;;;1.55;;
42098;SDS011;27758;55.900;8.516;2022-09-09T00:28:13;3.70;;;1.58;;
42098;SDS011;27758;55.900;8.516;2022-09-09T00:30:44;3.70;;;1.50;;
42098;SDS011;27758;55.900;8.516;2022-09-09T00:33:13;3.50;;;1.70;;
42098;SDS011;27758;55.900;8.516;2022-09-09T00:35:50;4.97;;;1.83;;
42098;SDS011;27758;55.900;8.516;2022-09-09T00:38:24;5.97;;;1.95;;
42098;SDS011;27758;55.900;8.516;2022-09-09T00:43:37;2.90;;;1.35;;
42098;SDS011;27758;55.900;8.516;2022-09-09T00:46:14;3.85;;;1.25;;
42098;SDS011;27758;55.900;8.516;2022-09-09T00:48:53;5.43;;;1.73;;
42098;SDS011;27758;55.900;8.516;2022-09-09T00:57:11;2.60;;;1.40;;
42098;SDS011;27758;55.900;8.516;2022-09-09T01:02:59;1.63;;;1.25;;
42098;SDS011;27758;55.900;8.516;2022-09-09T01:16:58;3.78;;;1.60;;
42098;SDS011;27758;55.900;8.516;2022-09-09T01:24:38;2.30;;;1.30;;
42098;SDS011;27758;55.900;8.516;2022-09-09T01:27:17;2.80;;;1.30;;
42098;SDS011;27758;55.900;8.516;2022-09-09T01:29:44;4.13;;;1.90;;
42098;SDS011;27758;55.900;8.516;2022-09-09T01:35:08;2.85;;;1.50;;
42098;SDS011;27758;55.900;8.516;2022-09-09T01:37:38;2.10;;;1.67;;
42098;SDS011;27758;55.900;8.516;2022-09-09T01:40:04;5.00;;;2.17;;
42098;SDS011;27758;55.900;8.516;2022-09-09T01:42:30;2.20;;;1.50;;
42098;SDS011;27758;55.900;8.516;2022-09-09T01:44:56;2.90;;;1.48;;
42098;SDS011;27758;55.900;8.516;2022-09-09T01:47:22;4.43;;;1.27;;
42098;SDS011;27758;55.900;8.516;2022-09-09T01:49:48;2.80;;;1.30;;
42098;SDS011;27758;55.900;8.516;2022-09-09T01:52:14;3.42;;;1.10;;
42098;SDS011;27758;55.900;8.516;2022-09-09T01:54:39;1.27;;;0.88;;
42098;SDS011;27758;55.900;8.516;2022-09-09T02:05:12;1.27;;;1.17;;
42098;SDS011;27758;55.900;8.516;2022-09-09T02:08:09;4.32;;;1.45;;
42098;SDS011;27758;55.900;8.516;2022-09-09T02:10:42;2.03;;;1.10;;
42098;SDS011;27758;55.900;8.516;2022-09-09T02:13:19;3.13;;;1.00;;
42098;SDS011;27758;55.900;8.516;2022-09-09T02:19:20;3.47;;;1.45;;
42098;SDS011;27758;55.900;8.516;2022-09-09T02:21:51;2.83;;;1.58;;
42098;SDS011;27758;55.900;8.516;2022-09-09T02:24:19;2.10;;;1.48;;
42098;SDS011;27758;55.900;8.516;2022-09-09T02:26:45;2.80;;;1.58;;
42098;SDS011;27758;55.900;8.516;2022-09-09T02:29:15;3.13;;;1.50;;
42098;SDS011;27758;55.900;8.516;2022-09-09T02:31:45;2.60;;;1.38;;
42098;SDS011;27758;55.900;8.516;2022-09-09T02:34:14;3.75;;;2.03;;
42098;SDS011;27758;55.900;8.516;2022-09-09T02:36:43;2.72;;;1.50;;
42098;SDS011;27758;55.900;8.516;2022-09-09T02:39:11;3.20;;;1.95;;
42098;SDS011;27758;55.900;8.516;2022-09-09T02:41:38;4.10;;;1.63;;
42098;SDS011;27758;55.900;8.516;2022-09-09T02:44:09;4.38;;;2.10;;
42098;SDS011;27758;55.900;8.516;2022-09-09T02:52:13;4.05;;;2.40;;
42098;SDS011;27758;55.900;8.516;2022-09-09T02:54:41;3.47;;;1.80;;
42098;SDS011;27758;55.900;8.516;2022-09-09T02:59:41;3.67;;;2.08;;
42098;SDS011;27758;55.900;8.516;2022-09-09T03:02:09;3.67;;;1.83;;
42098;SDS011;27758;55.900;8.516;2022-09-09T03:04:39;3.22;;;2.00;;
42098;SDS011;27758;55.900;8.516;2022-09-09T03:07:08;2.40;;;1.80;;
42098;SDS011;27758;55.900;8.516;2022-09-09T03:09:35;3.25;;;2.03;;
42098;SDS011;27758;55.900;8.516;2022-09-09T03:12:01;2.47;;;2.03;;
42098;SDS011;27758;55.900;8.516;2022-09-09T03:14:27;3.28;;;1.77;;
42098;SDS011;27758;55.900;8.516;2022-09-09T03:16:53;2.20;;;1.90;;
42098;SDS011;27758;55.900;8.516;2022-09-09T03:19:19;7.13;;;2.85;;
42098;SDS011;27758;55.900;8.516;2022-09-09T03:21:46;5.30;;;2.38;;
42098;SDS011;27758;55.900;8.516;2022-09-09T03:24:12;6.55;;;2.42;;
42098;SDS011;27758;55.900;8.516;2022-09-09T03:26:39;6.03;;;2.22;;
42098;SDS011;27758;55.900;8.516;2022-09-09T03:29:06;3.88;;;2.08;;
42098;SDS011;27758;55.900;8.516;2022-09-09T03:31:33;5.82;;;2.42;;
42098;SDS011;27758;55.900;8.516;2022-09-09T03:33:59;3.75;;;2.08;;
42098;SDS011;27758;55.900;8.516;2022-09-09T03:36:25;2.25;;;1.80;;
42098;SDS011;27758;55.900;8.516;2022-09-09T03:38:52;3.83;;;2.25;;
42098;SDS011;27758;55.900;8.516;2022-09-09T03:41:19;3.78;;;2.00;;
42098;SDS011;27758;55.900;8.516;2022-09-09T03:43:51;4.20;;;1.85;;
42098;SDS011;27758;55.900;8.516;2022-09-09T03:46:21;3.22;;;2.10;;
42098;SDS011;27758;55.900;8.516;2022-09-09T03:48:48;3.00;;;1.77;;
42098;SDS011;27758;55.900;8.516;2022-09-09T03:51:14;4.55;;;1.95;;
42098;SDS011;27758;55.900;8.516;2022-09-09T03:53:41;6.40;;;2.15;;
42098;SDS011;27758;55.900;8.516;2022-09-09T03:56:08;6.85;;;2.92;;
42098;SDS011;27758;55.900;8.516;2022-09-09T03:58:35;5.68;;;2.22;;
42098;SDS011;27758;55.900;8.516;2022-09-09T04:01:06;4.22;;;2.42;;
42098;SDS011;27758;55.900;8.516;2022-09-09T04:03:38;8.00;;;2.63;;
42098;SDS011;27758;55.900;8.516;2022-09-09T04:06:05;6.63;;;2.72;;
42098;SDS011;27758;55.900;8.516;2022-09-09T04:08:33;5.47;;;3.10;;
42098;SDS011;27758;55.900;8.516;2022-09-09T04:11:00;6.32;;;2.67;;
42098;SDS011;27758;55.900;8.516;2022-09-09T04:13:34;6.97;;;2.92;;
42098;SDS011;27758;55.900;8.516;2022-09-09T04:16:03;4.60;;;2.47;;
42098;SDS011;27758;55.900;8.516;2022-09-09T04:18:29;5.13;;;3.00;;
42098;SDS011;27758;55.900;8.516;2022-09-09T04:20:55;5.78;;;2.70;;
42098;SDS011;27758;55.900;8.516;2022-09-09T04:23:22;6.82;;;2.95;;
42098;SDS011;27758;55.900;8.516;2022-09-09T04:25:50;5.28;;;2.45;;
42098;SDS011;27758;55.900;8.516;2022-09-09T04:28:18;4.57;;;2.60;;
42098;SDS011;27758;55.900;8.516;2022-09-09T04:30:45;3.22;;;1.85;;
42098;SDS011;27758;55.900;8.516;2022-09-09T04:33:12;4.05;;;2.22;;
42098;SDS011;27758;55.900;8.516;2022-09-09T04:35:38;6.57;;;2.13;;
42098;SDS011;27758;55.900;8.516;2022-09-09T04:38:08;9.07;;;2.67;;
42098;SDS011;27758;55.900;8.516;2022-09-09T04:40:34;5.72;;;2.17;;
42098;SDS011;27758;55.900;8.516;2022-09-09T04:43:01;3.88;;;2.40;;
42098;SDS011;27758;55.900;8.516;2022-09-09T04:45:30;9.68;;;2.92;;
42098;SDS011;27758;55.900;8.516;2022-09-09T04:47:56;5.80;;;2.45;;
42098;SDS011;27758;55.900;8.516;2022-09-09T04:50:22;3.72;;;2.47;;
42098;SDS011;27758;55.900;8.516;2022-09-09T04:52:48;4.35;;;2.15;;
42098;SDS011;27758;55.900;8.516;2022-09-09T04:55:14;3.30;;;2.20;;
42098;SDS011;27758;55.900;8.516;2022-09-09T04:57:40;7.00;;;2.40;;
42098;SDS011;27758;55.900;8.516;2022-09-09T05:00:06;4.43;;;2.40;;
42098;SDS011;27758;55.900;8.516;2022-09-09T05:02:36;4.20;;;2.40;;
42098;SDS011;27758;55.900;8.516;2022-09-09T05:05:03;5.07;;;2.55;;
42098;SDS011;27758;55.900;8.516;2022-09-09T05:07:30;5.95;;;2.75;;
42098;SDS011;27758;55.900;8.516;2022-09-09T05:09:56;7.90;;;3.10;;
42098;SDS011;27758;55.900;8.516;2022-09-09T05:12:23;3.83;;;2.40;;
42098;SDS011;27758;55.900;8.516;2022-09-09T05:14:51;4.72;;;2.58;;
42098;SDS011;27758;55.900;8.516;2022-09-09T05:17:17;5.10;;;3.22;;
42098;SDS011;27758;55.900;8.516;2022-09-09T05:19:43;3.63;;;2.47;;
42098;SDS011;27758;55.900;8.516;2022-09-09T05:22:09;5.18;;;2.90;;
42098;SDS011;27758;55.900;8.516;2022-09-09T05:24:37;5.65;;;2.55;;
42098;SDS011;27758;55.900;8.516;2022-09-09T05:27:03;6.38;;;2.55;;
42098;SDS011;27758;55.900;8.516;2022-09-09T05:29:31;3.38;;;2.20;;
42098;SDS011;27758;55.900;8.516;2022-09-09T05:32:00;4.85;;;2.50;;
42098;SDS011;27758;55.900;8.516;2022-09-09T05:34:28;4.60;;;2.60;;
42098;SDS011;27758;55.900;8.516;2022-09-09T05:36:54;5.07;;;2.50;;
42098;SDS011;27758;55.900;8.516;2022-09-09T05:39:20;3.53;;;2.58;;
42098;SDS011;27758;55.900;8.516;2022-09-09T05:41:46;4.47;;;2.30;;
42098;SDS011;27758;55.900;8.516;2022-09-09T05:44:12;5.88;;;2.42;;
42098;SDS011;27758;55.900;8.516;2022-09-09T05:46:38;7.88;;;2.85;;
42098;SDS011;27758;55.900;8.516;2022-09-09T05:49:04;5.88;;;2.25;;
42098;SDS011;27758;55.900;8.516;2022-09-09T05:51:31;3.00;;;2.30;;
42098;SDS011;27758;55.900;8.516;2022-09-09T05:53:57;4.70;;;2.47;;
42098;SDS011;27758;55.900;8.516;2022-09-09T05:56:27;5.65;;;2.60;;
42098;SDS011;27758;55.900;8.516;2022-09-09T05:58:53;5.82;;;2.70;;
42098;SDS011;27758;55.900;8.516;2022-09-09T06:01:24;4.07;;;2.63;;
42098;SDS011;27758;55.900;8.516;2022-09-09T06:03:52;4.00;;;2.35;;
42098;SDS011;27758;55.900;8.516;2022-09-09T06:06:19;4.72;;;2.83;;
42098;SDS011;27758;55.900;8.516;2022-09-09T06:08:47;2.77;;;2.43;;
42098;SDS011;27758;55.900;8.516;2022-09-09T06:11:22;4.80;;;3.03;;
42098;SDS011;27758;55.900;8.516;2022-09-09T06:13:56;5.45;;;3.22;;
42098;SDS011;27758;55.900;8.516;2022-09-09T06:16:25;2.95;;;2.53;;
42098;SDS011;27758;55.900;8.516;2022-09-09T06:18:53;5.07;;;2.67;;
42098;SDS011;27758;55.900;8.516;2022-09-09T06:21:38;4.40;;;3.03;;
42098;SDS011;27758;55.900;8.516;2022-09-09T06:24:05;3.88;;;2.60;;
42098;SDS011;27758;55.900;8.516;2022-09-09T06:26:33;4.65;;;2.80;;
42098;SDS011;27758;55.900;8.516;2022-09-09T06:29:01;3.17;;;2.47;;
42098;SDS011;27758;55.900;8.516;2022-09-09T06:31:29;3.25;;;2.55;;
42098;SDS011;27758;55.900;8.516;2022-09-09T06:33:57;4.15;;;2.47;;
42098;SDS011;27758;55.900;8.516;2022-09-09T06:36:24;5.13;;;2.70;;
42098;SDS011;27758;55.900;8.516;2022-09-09T06:38:52;7.35;;;2.88;;
42098;SDS011;27758;55.900;8.516;2022-09-09T06:41:19;4.25;;;2.60;;
42098;SDS011;27758;55.900;8.516;2022-09-09T06:43:47;3.67;;;2.95;;
42098;SDS011;27758;55.900;8.516;2022-09-09T06:46:14;5.07;;;3.10;;
42098;SDS011;27758;55.900;8.516;2022-09-09T06:48:46;5.22;;;3.08;;
42098;SDS011;27758;55.900;8.516;2022-09-09T06:51:13;4.53;;;3.47;;
42098;SDS011;27758;55.900;8.516;2022-09-09T06:53:44;4.65;;;3.22;;
42098;SDS011;27758;55.900;8.516;2022-09-09T06:58:53;7.43;;;3.97;;
42098;SDS011;27758;55.900;8.516;2022-09-09T07:01:27;5.97;;;4.00;;
42098;SDS011;27758;55.900;8.516;2022-09-09T07:03:55;5.20;;;4.00;;
42098;SDS011;27758;55.900;8.516;2022-09-09T07:06:27;11.10;;;5.40;;
42098;SDS011;27758;55.900;8.516;2022-09-09T07:08:58;7.25;;;4.80;;
42098;SDS011;27758;55.900;8.516;2022-09-09T07:11:27;9.82;;;6.25;;
42098;SDS011;27758;55.900;8.516;2022-09-09T07:13:56;10.45;;;7.13;;
42098;SDS011;27758;55.900;8.516;2022-09-09T07:16:23;8.93;;;6.47;;
42098;SDS011;27758;55.900;8.516;2022-09-09T07:18:50;12.40;;;7.78;;
42098;SDS011;27758;55.900;8.516;2022-09-09T07:21:17;12.70;;;6.80;;
42098;SDS011;27758;55.900;8.516;2022-09-09T07:23:44;9.93;;;6.50;;
42098;SDS011;27758;55.900;8.516;2022-09-09T07:26:13;8.70;;;6.00;;
42098;SDS011;27758;55.900;8.516;2022-09-09T07:28:47;8.65;;;6.20;;
42098;SDS011;27758;55.900;8.516;2022-09-09T07:31:16;8.25;;;6.45;;
42098;SDS011;27758;55.900;8.516;2022-09-09T07:33:46;8.85;;;6.22;;
42098;SDS011;27758;55.900;8.516;2022-09-09T07:36:22;8.77;;;6.85;;
42098;SDS011;27758;55.900;8.516;2022-09-09T07:38:57;8.88;;;6.40;;
42098;SDS011;27758;55.900;8.516;2022-09-09T07:41:26;9.13;;;6.68;;
42098;SDS011;27758;55.900;8.516;2022-09-09T07:43:54;10.48;;;7.03;;
42098;SDS011;27758;55.900;8.516;2022-09-09T07:46:20;7.90;;;6.53;;
42098;SDS011;27758;55.900;8.516;2022-09-09T07:48:49;11.18;;;7.28;;
42098;SDS011;27758;55.900;8.516;2022-09-09T07:51:18;8.23;;;6.93;;
42098;SDS011;27758;55.900;8.516;2022-09-09T07:53:46;10.30;;;6.93;;
42098;SDS011;27758;55.900;8.516;2022-09-09T07:56:13;8.20;;;7.15;;
42098;SDS011;27758;55.900;8.516;2022-09-09T07:58:47;10.65;;;7.72;;
42098;SDS011;27758;55.900;8.516;2022-09-09T08:01:16;11.77;;;8.27;;
42098;SDS011;27758;55.900;8.516;2022-09-09T08:03:47;8.50;;;7.60;;
42098;SDS011;27758;55.900;8.516;2022-09-09T08:06:19;11.25;;;9.05;;
42098;SDS011;27758;55.900;8.516;2022-09-09T08:08:49;10.70;;;8.70;;
42098;SDS011;27758;55.900;8.516;2022-09-09T08:11:15;11.15;;;7.88;;
42098;SDS011;27758;55.900;8.516;2022-09-09T08:13:43;11.88;;;8.40;;
42098;SDS011;27758;55.900;8.516;2022-09-09T08:16:21;8.80;;;6.97;;
42098;SDS011;27758;55.900;8.516;2022-09-09T08:18:49;10.07;;;6.85;;
42098;SDS011;27758;55.900;8.516;2022-09-09T08:21:18;11.38;;;7.68;;
42098;SDS011;27758;55.900;8.516;2022-09-09T08:23:46;10.18;;;7.57;;
42098;SDS011;27758;55.900;8.516;2022-09-09T08:26:14;8.30;;;7.20;;
42098;SDS011;27758;55.900;8.516;2022-09-09T08:28:41;9.10;;;7.72;;
42098;SDS011;27758;55.900;8.516;2022-09-09T08:31:12;9.45;;;7.72;;
42098;SDS011;27758;55.900;8.516;2022-09-09T08:33:40;8.65;;;7.55;;
42098;SDS011;27758;55.900;8.516;2022-09-09T08:36:09;10.70;;;7.45;;
42098;SDS011;27758;55.900;8.516;2022-09-09T08:38:36;10.63;;;8.25;;
42098;SDS011;27758;55.900;8.516;2022-09-09T08:41:06;10.93;;;7.55;;
42098;SDS011;27758;55.900;8.516;2022-09-09T08:51:47;9.68;;;8.38;;
42098;SDS011;27758;55.900;8.516;2022-09-09T08:54:15;11.80;;;8.68;;
42098;SDS011;27758;55.900;8.516;2022-09-09T08:56:41;13.07;;;9.35;;
42098;SDS011;27758;55.900;8.516;2022-09-09T08:59:07;12.20;;;9.63;;
42098;SDS011;27758;55.900;8.516;2022-09-09T09:01:49;14.88;;;9.40;;
42098;SDS011;27758;55.900;8.516;2022-09-09T09:12:27;11.85;;;9.00;;
42098;SDS011;27758;55.900;8.516;2022-09-09T09:14:58;11.90;;;8.02;;
42098;SDS011;27758;55.900;8.516;2022-09-09T09:17:25;13.13;;;9.60;;
42098;SDS011;27758;55.900;8.516;2022-09-09T09:19:56;11.23;;;8.23;;
42098;SDS011;27758;55.900;8.516;2022-09-09T09:22:42;12.40;;;9.70;;
42098;SDS011;27758;55.900;8.516;2022-09-09T09:25:21;12.30;;;8.90;;
42098;SDS011;27758;55.900;8.516;2022-09-09T09:27:57;12.52;;;8.45;;
42098;SDS011;27758;55.900;8.516;2022-09-09T09:30:35;13.88;;;10.02;;
42098;SDS011;27758;55.900;8.516;2022-09-09T09:33:22;12.88;;;9.82;;
42098;SDS011;27758;55.900;8.516;2022-09-09T09:35:58;13.23;;;9.77;;
42098;SDS011;27758;55.900;8.516;2022-09-09T09:38:25;12.48;;;10.23;;
42098;SDS011;27758;55.900;8.516;2022-09-09T09:40:53;14.15;;;10.23;;
42098;SDS011;27758;55.900;8.516;2022-09-09T09:43:30;13.07;;;10.75;;
42098;SDS011;27758;55.900;8.516;2022-09-09T09:46:00;17.63;;;12.73;;
42098;SDS011;27758;55.900;8.516;2022-09-09T09:48:29;14.95;;;11.57;;
42098;SDS011;27758;55.900;8.516;2022-09-09T09:53:27;13.77;;;11.43;;
42098;SDS011;27758;55.900;8.516;2022-09-09T09:56:03;15.98;;;12.13;;
42098;SDS011;27758;55.900;8.516;2022-09-09T09:58:32;18.77;;;13.02;;
42098;SDS011;27758;55.900;8.516;2022-09-09T10:01:25;15.98;;;12.80;;
42098;SDS011;27758;55.900;8.516;2022-09-09T10:03:54;14.85;;;12.98;;
42098;SDS011;27758;55.900;8.516;2022-09-09T10:06:34;18.02;;;14.18;;
42098;SDS011;27758;55.900;8.516;2022-09-09T10:09:04;22.40;;;16.45;;
42098;SDS011;27758;55.900;8.516;2022-09-09T10:12:16;20.48;;;16.63;;
42098;SDS011;27758;55.900;8.516;2022-09-09T10:19:54;23.13;;;18.50;;
42098;SDS011;27758;55.900;8.516;2022-09-09T10:22:32;23.00;;;17.38;;
42098;SDS011;27758;55.900;8.516;2022-09-09T10:30:19;21.92;;;16.02;;
42098;SDS011;27758;55.900;8.516;2022-09-09T10:33:08;20.63;;;15.48;;
42098;SDS011;27758;55.900;8.516;2022-09-09T10:35:48;23.33;;;17.17;;
42098;SDS011;27758;55.900;8.516;2022-09-09T10:41:15;22.80;;;17.58;;
42098;SDS011;27758;55.900;8.516;2022-09-09T10:46:33;23.83;;;17.55;;
42098;SDS011;27758;55.900;8.516;2022-09-09T10:49:32;21.92;;;15.23;;
42098;SDS011;27758;55.900;8.516;2022-09-09T10:52:22;17.88;;;12.77;;
42098;SDS011;27758;55.900;8.516;2022-09-09T10:55:03;16.52;;;12.45;;
42098;SDS011;27758;55.900;8.516;2022-09-09T11:00:18;17.60;;;11.85;;
42098;SDS011;27758;55.900;8.516;2022-09-09T11:02:56;15.93;;;11.13;;
42098;SDS011;27758;55.900;8.516;2022-09-09T11:05:35;16.67;;;10.63;;
42098;SDS011;27758;55.900;8.516;2022-09-09T11:08:26;16.10;;;10.57;;
42098;SDS011;27758;55.900;8.516;2022-09-09T11:16:29;11.88;;;7.78;;
42098;SDS011;27758;55.900;8.516;2022-09-09T11:21:50;14.73;;;9.65;;
42098;SDS011;27758;55.900;8.516;2022-09-09T11:24:31;11.85;;;8.50;;
42098;SDS011;27758;55.900;8.516;2022-09-09T11:37:41;9.50;;;6.53;;
42098;SDS011;27758;55.900;8.516;2022-09-09T11:40:20;8.70;;;6.18;;
42098;SDS011;27758;55.900;8.516;2022-09-09T11:42:46;10.73;;;6.03;;
42098;SDS011;27758;55.900;8.516;2022-09-09T11:45:22;7.93;;;6.03;;
42098;SDS011;27758;55.900;8.516;2022-09-09T11:47:56;12.52;;;7.20;;
42098;SDS011;27758;55.900;8.516;2022-09-09T11:52:49;9.05;;;6.32;;
42098;SDS011;27758;55.900;8.516;2022-09-09T11:55:25;9.80;;;6.88;;
42098;SDS011;27758;55.900;8.516;2022-09-09T11:57:58;7.55;;;5.05;;
42098;SDS011;27758;55.900;8.516;2022-09-09T12:00:35;9.98;;;6.90;;
42098;SDS011;27758;55.900;8.516;2022-09-09T12:03:05;13.07;;;8.05;;
42098;SDS011;27758;55.900;8.516;2022-09-09T12:05:52;10.45;;;6.47;;
42098;SDS011;27758;55.900;8.516;2022-09-09T12:08:20;8.30;;;5.95;;
42098;SDS011;27758;55.900;8.516;2022-09-09T12:10:53;7.82;;;5.45;;
42098;SDS011;27758;55.900;8.516;2022-09-09T12:13:22;8.52;;;5.65;;
42098;SDS011;27758;55.900;8.516;2022-09-09T12:15:53;9.63;;;5.67;;
42098;SDS011;27758;55.900;8.516;2022-09-09T12:18:34;7.88;;;4.80;;
42098;SDS011;27758;55.900;8.516;2022-09-09T12:23:52;9.18;;;5.13;;
42098;SDS011;27758;55.900;8.516;2022-09-09T12:26:41;11.15;;;6.47;;
42098;SDS011;27758;55.900;8.516;2022-09-09T12:29:29;9.63;;;6.30;;
42098;SDS011;27758;55.900;8.516;2022-09-09T12:32:23;14.88;;;8.15;;
42098;SDS011;27758;55.900;8.516;2022-09-09T12:34:54;11.80;;;7.57;;
42098;SDS011;27758;55.900;8.516;2022-09-09T12:40:23;11.85;;;6.40;;
42098;SDS011;27758;55.900;8.516;2022-09-09T12:42:51;13.80;;;7.60;;
42098;SDS011;27758;55.900;8.516;2022-09-09T12:45:18;11.30;;;6.90;;
42098;SDS011;27758;55.900;8.516;2022-09-09T12:50:35;8.85;;;4.95;;
42098;SDS011;27758;55.900;8.516;2022-09-09T12:53:06;12.00;;;4.63;;
42098;SDS011;27758;55.900;8.516;2022-09-09T12:55:36;14.02;;;6.40;;
42098;SDS011;27758;55.900;8.516;2022-09-09T12:58:04;10.98;;;6.38;;
42098;SDS011;27758;55.900;8.516;2022-09-09T13:00:32;10.13;;;6.78;;
42098;SDS011;27758;55.900;8.516;2022-09-09T13:03:13;11.85;;;6.97;;
42098;SDS011;27758;55.900;8.516;2022-09-09T13:05:42;16.40;;;6.78;;
42098;SDS011;27758;55.900;8.516;2022-09-09T13:08:09;14.52;;;7.45;;
42098;SDS011;27758;55.900;8.516;2022-09-09T13:10:37;11.52;;;6.47;;
42098;SDS011;27758;55.900;8.516;2022-09-09T13:13:15;15.35;;;8.50;;
42098;SDS011;27758;55.900;8.516;2022-09-09T13:15:52;11.38;;;7.55;;
42098;SDS011;27758;55.900;8.516;2022-09-09T13:18:24;12.57;;;8.05;;
42098;SDS011;27758;55.900;8.516;2022-09-09T13:20:56;14.18;;;8.70;;
42098;SDS011;27758;55.900;8.516;2022-09-09T13:23:26;14.10;;;8.38;;
42098;SDS011;27758;55.900;8.516;2022-09-09T13:25:57;16.52;;;10.00;;
42098;SDS011;27758;55.900;8.516;2022-09-09T13:28:29;14.20;;;9.45;;
42098;SDS011;27758;55.900;8.516;2022-09-09T13:31:38;15.98;;;10.00;;
42098;SDS011;27758;55.900;8.516;2022-09-09T13:33:46;16.10;;;9.05;;
42098;SDS011;27758;55.900;8.516;2022-09-09T13:36:12;12.43;;;8.88;;
42098;SDS011;27758;55.900;8.516;2022-09-09T13:41:20;14.13;;;7.43;;
42098;SDS011;27758;55.900;8.516;2022-09-09T13:43:54;12.23;;;7.60;;
42098;SDS011;27758;55.900;8.516;2022-09-09T13:46:36;17.65;;;9.88;;
42098;SDS011;27758;55.900;8.516;2022-09-09T13:54:06;14.80;;;8.20;;
42098;SDS011;27758;55.900;8.516;2022-09-09T13:56:34;12.52;;;6.78;;
42098;SDS011;27758;55.900;8.516;2022-09-09T13:59:02;10.40;;;4.38;;
42098;SDS011;27758;55.900;8.516;2022-09-09T14:01:28;9.15;;;5.55;;
42098;SDS011;27758;55.900;8.516;2022-09-09T14:03:55;8.85;;;4.75;;
42098;SDS011;27758;55.900;8.516;2022-09-09T14:06:21;8.27;;;4.30;;
42098;SDS011;27758;55.900;8.516;2022-09-09T14:08:47;4.03;;;2.80;;
42098;SDS011;27758;55.900;8.516;2022-09-09T14:11:15;4.03;;;2.10;;
42098;SDS011;27758;55.900;8.516;2022-09-09T14:13:42;3.25;;;2.05;;
42098;SDS011;27758;55.900;8.516;2022-09-09T14:16:08;4.88;;;2.70;;
42098;SDS011;27758;55.900;8.516;2022-09-09T14:18:34;7.40;;;4.50;;
42098;SDS011;27758;55.900;8.516;2022-09-09T14:21:00;11.13;;;6.40;;
42098;SDS011;27758;55.900;8.516;2022-09-09T14:23:27;10.40;;;6.63;;
42098;SDS011;27758;55.900;8.516;2022-09-09T14:25:54;10.60;;;6.28;;
42098;SDS011;27758;55.900;8.516;2022-09-09T14:28:21;9.40;;;5.80;;
42098;SDS011;27758;55.900;8.516;2022-09-09T14:30:47;12.65;;;6.38;;
42098;SDS011;27758;55.900;8.516;2022-09-09T14:33:13;10.25;;;6.80;;
42098;SDS011;27758;55.900;8.516;2022-09-09T14:35:41;9.07;;;6.03;;
42098;SDS011;27758;55.900;8.516;2022-09-09T14:38:07;11.48;;;5.47;;
42098;SDS011;27758;55.900;8.516;2022-09-09T14:40:34;11.88;;;7.93;;
42098;SDS011;27758;55.900;8.516;2022-09-09T14:43:01;11.60;;;7.93;;
42098;SDS011;27758;55.900;8.516;2022-09-09T14:45:27;12.98;;;7.55;;
42098;SDS011;27758;55.900;8.516;2022-09-09T14:47:53;12.35;;;7.43;;
42098;SDS011;27758;55.900;8.516;2022-09-09T14:50:19;14.13;;;7.93;;
42098;SDS011;27758;55.900;8.516;2022-09-09T14:52:46;12.35;;;7.72;;
42098;SDS011;27758;55.900;8.516;2022-09-09T14:55:12;12.60;;;7.72;;
42098;SDS011;27758;55.900;8.516;2022-09-09T14:57:38;12.98;;;8.07;;
42098;SDS011;27758;55.900;8.516;2022-09-09T15:00:05;12.55;;;9.23;;
42098;SDS011;27758;55.900;8.516;2022-09-09T15:02:33;13.15;;;8.60;;
42098;SDS011;27758;55.900;8.516;2022-09-09T15:04:59;11.27;;;8.52;;
42098;SDS011;27758;55.900;8.516;2022-09-09T15:07:25;11.65;;;9.02;;
42098;SDS011;27758;55.900;8.516;2022-09-09T15:09:51;14.10;;;9.38;;
42098;SDS011;27758;55.900;8.516;2022-09-09T15:12:18;13.35;;;8.88;;
42098;SDS011;27758;55.900;8.516;2022-09-09T15:14:44;13.55;;;8.50;;
42098;SDS011;27758;55.900;8.516;2022-09-09T15:17:10;14.52;;;7.75;;
42098;SDS011;27758;55.900;8.516;2022-09-09T15:19:36;14.15;;;8.23;;
42098;SDS011;27758;55.900;8.516;2022-09-09T15:22:03;14.10;;;7.80;;
42098;SDS011;27758;55.900;8.516;2022-09-09T15:24:31;12.38;;;6.60;;
42098;SDS011;27758;55.900;8.516;2022-09-09T15:26:57;9.95;;;6.78;;
42098;SDS011;27758;55.900;8.516;2022-09-09T15:29:24;12.18;;;6.80;;
42098;SDS011;27758;55.900;8.516;2022-09-09T15:31:50;13.98;;;7.22;;
42098;SDS011;27758;55.900;8.516;2022-09-09T15:34:16;10.30;;;5.82;;
42098;SDS011;27758;55.900;8.516;2022-09-09T15:36:44;11.85;;;6.53;;
42098;SDS011;27758;55.900;8.516;2022-09-09T15:39:13;8.77;;;5.28;;
42098;SDS011;27758;55.900;8.516;2022-09-09T15:41:46;6.13;;;4.53;;
42098;SDS011;27758;55.900;8.516;2022-09-09T15:44:13;3.95;;;2.40;;
42098;SDS011;27758;55.900;8.516;2022-09-09T15:46:41;4.85;;;1.73;;
42098;SDS011;27758;55.900;8.516;2022-09-09T15:49:17;5.70;;;2.35;;
42098;SDS011;27758;55.900;8.516;2022-09-09T15:51:54;5.93;;;2.92;;
42098;SDS011;27758;55.900;8.516;2022-09-09T15:54:22;8.23;;;3.60;;
42098;SDS011;27758;55.900;8.516;2022-09-09T15:56:59;8.82;;;4.07;;
42098;SDS011;27758;55.900;8.516;2022-09-09T15:59:27;8.63;;;3.10;;
42098;SDS011;27758;55.900;8.516;2022-09-09T16:01:54;10.95;;;3.72;;
42098;SDS011;27758;55.900;8.516;2022-09-09T16:04:21;7.30;;;4.47;;
42098;SDS011;27758;55.900;8.516;2022-09-09T16:07:12;8.07;;;4.10;;
42098;SDS011;27758;55.900;8.516;2022-09-09T16:09:37;9.65;;;5.47;;
42098;SDS011;27758;55.900;8.516;2022-09-09T16:12:03;7.72;;;5.50;;
42098;SDS011;27758;55.900;8.516;2022-09-09T16:14:31;7.97;;;5.35;;
42098;SDS011;27758;55.900;8.516;2022-09-09T16:17:01;10.20;;;6.00;;
42098;SDS011;27758;55.900;8.516;2022-09-09T16:19:27;10.93;;;7.60;;
42098;SDS011;27758;55.900;8.516;2022-09-09T16:21:53;12.27;;;7.68;;
42098;SDS011;27758;55.900;8.516;2022-09-09T16:24:19;14.48;;;9.23;;
42098;SDS011;27758;55.900;8.516;2022-09-09T16:26:47;9.60;;;7.55;;
42098;SDS011;27758;55.900;8.516;2022-09-09T16:29:15;16.13;;;8.83;;
42098;SDS011;27758;55.900;8.516;2022-09-09T16:31:42;12.70;;;9.07;;
42098;SDS011;27758;55.900;8.516;2022-09-09T16:34:09;13.98;;;8.32;;
42098;SDS011;27758;55.900;8.516;2022-09-09T16:36:36;14.05;;;8.93;;
42098;SDS011;27758;55.900;8.516;2022-09-09T16:39:05;12.43;;;7.70;;
42098;SDS011;27758;55.900;8.516;2022-09-09T16:41:34;11.88;;;8.30;;
42098;SDS011;27758;55.900;8.516;2022-09-09T16:44:01;14.70;;;7.85;;
42098;SDS011;27758;55.900;8.516;2022-09-09T16:46:29;10.68;;;7.68;;
42098;SDS011;27758;55.900;8.516;2022-09-09T16:48:57;10.73;;;7.90;;
42098;SDS011;27758;55.900;8.516;2022-09-09T16:51:25;14.02;;;8.55;;
42098;SDS011;27758;55.900;8.516;2022-09-09T16:53:52;12.50;;;9.07;;
42098;SDS011;27758;55.900;8.516;2022-09-09T16:56:21;13.65;;;9.10;;
42098;SDS011;27758;55.900;8.516;2022-09-09T16:58:50;12.35;;;9.82;;
42098;SDS011;27758;55.900;8.516;2022-09-09T17:01:22;12.00;;;8.75;;
42098;SDS011;27758;55.900;8.516;2022-09-09T17:04:01;12.23;;;9.35;;
42098;SDS011;27758;55.900;8.516;2022-09-09T17:06:30;15.25;;;8.88;;
42098;SDS011;27758;55.900;8.516;2022-09-09T17:09:00;15.00;;;10.70;;
42098;SDS011;27758;55.900;8.516;2022-09-09T17:11:28;12.85;;;10.35;;
42098;SDS011;27758;55.900;8.516;2022-09-09T17:13:55;16.10;;;11.82;;
42098;SDS011;27758;55.900;8.516;2022-09-09T17:16:24;16.02;;;12.88;;